sensor_id;sensor_type;location;lat;lon;timestamp;temperature;humidity
46217;DHT22;47258;59.424;13.482;2022-12-24T00:01:35;-6.90;99.90
46217;DHT22;47258;59.424;13.482;2022-12-24T00:04:02;-7.00;99.90
46217;DHT22;47258;59.424;13.482;2022-12-24T00:06:29;-7.00;99.90
46217;DHT22;47258;59.424;13.482;2022-12-24T00:08:56;-7.00;99.90
46217;DHT22;47258;59.424;13.482;2022-12-24T00:11:23;-7.10;99.90
46217;DHT22;47258;59.424;13.482;2022-12-24T00:13:50;-7.10;99.90
46217;DHT22;47258;59.424;13.482;2022-12-24T00:16:18;-7.10;99.90
46217;DHT22;47258;59.424;13.482;2022-12-24T00:18:46;-7.20;99.90
46217;DHT22;47258;59.424;13.482;2022-12-24T00:21:14;-7.10;99.90
46217;DHT22;47258;59.424;13.482;2022-12-24T00:23:41;-7.10;99.90
46217;DHT22;47258;59.424;13.482;2022-12-24T00:26:08;-7.10;99.90
46217;DHT22;47258;59.424;13.482;2022-12-24T00:28:35;-7.10;99.90
46217;DHT22;47258;59.424;13.482;2022-12-24T00:31:07;-7.20;99.90
46217;DHT22;47258;59.424;13.482;2022-12-24T00:33:34;-7.30;99.90
46217;DHT22;47258;59.424;13.482;2022-12-24T00:36:04;-7.30;99.90
46217;DHT22;47258;59.424;13.482;2022-12-24T00:38:31;-7.30;99.90
46217;DHT22;47258;59.424;13.482;2022-12-24T00:40:59;-7.30;99.90
46217;DHT22;47258;59.424;13.482;2022-12-24T00:43:27;-7.30;99.90
46217;DHT22;47258;59.424;13.482;2022-12-24T00:45:54;-7.30;99.90
46217;DHT22;47258;59.424;13.482;2022-12-24T00:48:21;-7.30;99.90
46217;DHT22;47258;59.424;13.482;2022-12-24T00:50:49;-7.30;99.90
46217;DHT22;47258;59.424;13.482;2022-12-24T00:53:17;-7.30;99.90
46217;DHT22;47258;59.424;13.482;2022-12-24T00:55:45;-7.30;99.90
46217;DHT22;47258;59.424;13.482;2022-12-24T00:58:12;-7.30;99.90
46217;DHT22;47258;59.424;13.482;2022-12-24T01:00:39;-7.30;99.90
46217;DHT22;47258;59.424;13.482;2022-12-24T01:03:06;-7.30;99.90
46217;DHT22;47258;59.424;13.482;2022-12-24T01:05:33;-7.40;99.90
46217;DHT22;47258;59.424;13.482;2022-12-24T01:08:00;-7.40;99.90
46217;DHT22;47258;59.424;13.482;2022-12-24T01:10:28;-7.40;99.90
46217;DHT22;47258;59.424;13.482;2022-12-24T01:12:56;-7.50;99.90
46217;DHT22;47258;59.424;13.482;2022-12-24T01:15:23;-7.50;99.90
46217;DHT22;47258;59.424;13.482;2022-12-24T01:17:50;-7.50;99.90
46217;DHT22;47258;59.424;13.482;2022-12-24T01:20:17;-7.50;99.90
46217;DHT22;47258;59.424;13.482;2022-12-24T01:22:44;-7.50;99.90
46217;DHT22;47258;59.424;13.482;2022-12-24T01:25:11;-7.50;99.90
46217;DHT22;47258;59.424;13.482;2022-12-24T01:27:40;-7.50;99.90
46217;DHT22;47258;59.424;13.482;2022-12-24T01:30:10;-7.50;99.90
46217;DHT22;47258;59.424;13.482;2022-12-24T01:32:38;-7.50;99.90
46217;DHT22;47258;59.424;13.482;2022-12-24T01:35:06;-7.50;99.90
46217;DHT22;47258;59.424;13.482;2022-12-24T01:37:34;-7.50;99.90
46217;DHT22;47258;59.424;13.482;2022-12-24T01:40:01;-7.50;99.90
46217;DHT22;47258;59.424;13.482;2022-12-24T01:42:48;-7.50;99.90
46217;DHT22;47258;59.424;13.482;2022-12-24T01:45:47;-7.50;99.90
46217;DHT22;47258;59.424;13.482;2022-12-24T01:48:33;-7.50;99.90
46217;DHT22;47258;59.424;13.482;2022-12-24T01:51:04;-7.50;99.90
46217;DHT22;47258;59.424;13.482;2022-12-24T01:53:34;-7.50;99.90
46217;DHT22;47258;59.424;13.482;2022-12-24T01:56:04;-7.60;99.90
46217;DHT22;47258;59.424;13.482;2022-12-24T01:58:35;-7.60;99.90
46217;DHT22;47258;59.424;13.482;2022-12-24T02:01:03;-7.60;99.90
46217;DHT22;47258;59.424;13.482;2022-12-24T02:03:31;-7.70;99.90
46217;DHT22;47258;59.424;13.482;2022-12-24T02:05:59;-7.70;99.90
46217;DHT22;47258;59.424;13.482;2022-12-24T02:08:26;-7.70;99.90
46217;DHT22;47258;59.424;13.482;2022-12-24T02:11:11;-7.70;99.90
46217;DHT22;47258;59.424;13.482;2022-12-24T02:13:41;-7.70;99.90
46217;DHT22;47258;59.424;13.482;2022-12-24T02:16:17;-7.70;99.90
46217;DHT22;47258;59.424;13.482;2022-12-24T02:18:54;-7.70;99.90
46217;DHT22;47258;59.424;13.482;2022-12-24T02:21:50;-7.70;99.90
46217;DHT22;47258;59.424;13.482;2022-12-24T02:24:27;-7.70;99.90
46217;DHT22;47258;59.424;13.482;2022-12-24T02:27:13;-7.70;99.90
46217;DHT22;47258;59.424;13.482;2022-12-24T02:30:03;-7.80;99.90
46217;DHT22;47258;59.424;13.482;2022-12-24T02:32:42;-7.70;99.90
46217;DHT22;47258;59.424;13.482;2022-12-24T02:35:14;-7.70;99.90
46217;DHT22;47258;59.424;13.482;2022-12-24T02:37:46;-7.70;99.90
46217;DHT22;47258;59.424;13.482;2022-12-24T02:42:48;-7.70;99.90
46217;DHT22;47258;59.424;13.482;2022-12-24T02:45:21;-7.70;99.90
46217;DHT22;47258;59.424;13.482;2022-12-24T02:47:49;-7.70;99.90
46217;DHT22;47258;59.424;13.482;2022-12-24T02:50:18;-7.70;99.90
46217;DHT22;47258;59.424;13.482;2022-12-24T02:52:46;-7.70;99.90
46217;DHT22;47258;59.424;13.482;2022-12-24T02:55:16;-7.70;99.90
46217;DHT22;47258;59.424;13.482;2022-12-24T02:57:55;-7.70;99.90
46217;DHT22;47258;59.424;13.482;2022-12-24T03:00:29;-7.80;99.90
46217;DHT22;47258;59.424;13.482;2022-12-24T03:03:19;-7.80;99.90
46217;DHT22;47258;59.424;13.482;2022-12-24T03:05:48;-7.80;99.90
46217;DHT22;47258;59.424;13.482;2022-12-24T03:08:20;-7.90;99.90
46217;DHT22;47258;59.424;13.482;2022-12-24T03:10:54;-7.90;99.90
46217;DHT22;47258;59.424;13.482;2022-12-24T03:13:23;-7.80;99.90
46217;DHT22;47258;59.424;13.482;2022-12-24T03:15:52;-7.80;99.90
46217;DHT22;47258;59.424;13.482;2022-12-24T03:18:21;-7.80;99.90
46217;DHT22;47258;59.424;13.482;2022-12-24T03:20:53;-7.80;99.90
46217;DHT22;47258;59.424;13.482;2022-12-24T03:23:22;-7.80;99.90
46217;DHT22;47258;59.424;13.482;2022-12-24T03:25:49;-7.80;99.90
46217;DHT22;47258;59.424;13.482;2022-12-24T03:28:18;-7.80;99.90
46217;DHT22;47258;59.424;13.482;2022-12-24T03:30:47;-7.80;99.90
46217;DHT22;47258;59.424;13.482;2022-12-24T03:33:16;-7.80;99.90
46217;DHT22;47258;59.424;13.482;2022-12-24T03:35:43;-7.80;99.90
46217;DHT22;47258;59.424;13.482;2022-12-24T03:38:11;-7.80;99.90
46217;DHT22;47258;59.424;13.482;2022-12-24T03:40:38;-7.80;99.90
46217;DHT22;47258;59.424;13.482;2022-12-24T03:43:05;-7.80;99.90
46217;DHT22;47258;59.424;13.482;2022-12-24T03:45:32;-7.80;99.90
46217;DHT22;47258;59.424;13.482;2022-12-24T03:47:59;-7.80;99.90
46217;DHT22;47258;59.424;13.482;2022-12-24T03:50:27;-7.80;99.90
46217;DHT22;47258;59.424;13.482;2022-12-24T03:52:54;-7.80;99.90
46217;DHT22;47258;59.424;13.482;2022-12-24T03:55:22;-7.80;99.90
46217;DHT22;47258;59.424;13.482;2022-12-24T03:57:49;-7.80;99.90
46217;DHT22;47258;59.424;13.482;2022-12-24T04:00:17;-7.80;99.90
46217;DHT22;47258;59.424;13.482;2022-12-24T04:02:44;-7.80;99.90
46217;DHT22;47258;59.424;13.482;2022-12-24T04:05:14;-7.80;99.90
46217;DHT22;47258;59.424;13.482;2022-12-24T04:07:44;-7.80;99.90
46217;DHT22;47258;59.424;13.482;2022-12-24T04:10:12;-7.80;99.90
46217;DHT22;47258;59.424;13.482;2022-12-24T04:12:40;-7.90;99.90
46217;DHT22;47258;59.424;13.482;2022-12-24T04:15:08;-8.00;99.90
46217;DHT22;47258;59.424;13.482;2022-12-24T04:17:36;-8.10;99.90
46217;DHT22;47258;59.424;13.482;2022-12-24T04:20:03;-8.10;99.90
46217;DHT22;47258;59.424;13.482;2022-12-24T04:22:31;-8.20;99.90
46217;DHT22;47258;59.424;13.482;2022-12-24T04:24:59;-8.30;99.90
46217;DHT22;47258;59.424;13.482;2022-12-24T04:27:26;-8.30;99.90
46217;DHT22;47258;59.424;13.482;2022-12-24T04:29:55;-8.30;99.90
46217;DHT22;47258;59.424;13.482;2022-12-24T04:32:24;-8.30;99.90
46217;DHT22;47258;59.424;13.482;2022-12-24T04:34:51;-8.30;99.90
46217;DHT22;47258;59.424;13.482;2022-12-24T04:37:18;-8.30;99.90
46217;DHT22;47258;59.424;13.482;2022-12-24T04:39:45;-8.30;99.90
46217;DHT22;47258;59.424;13.482;2022-12-24T04:42:13;-8.30;99.90
46217;DHT22;47258;59.424;13.482;2022-12-24T04:44:40;-8.30;99.90
46217;DHT22;47258;59.424;13.482;2022-12-24T04:47:07;-8.30;99.90
46217;DHT22;47258;59.424;13.482;2022-12-24T04:49:35;-8.30;99.90
46217;DHT22;47258;59.424;13.482;2022-12-24T04:52:02;-8.20;99.90
46217;DHT22;47258;59.424;13.482;2022-12-24T04:54:29;-8.20;99.90
46217;DHT22;47258;59.424;13.482;2022-12-24T04:56:56;-8.30;99.90
46217;DHT22;47258;59.424;13.482;2022-12-24T04:59:24;-8.30;99.90
46217;DHT22;47258;59.424;13.482;2022-12-24T05:01:52;-8.30;99.90
46217;DHT22;47258;59.424;13.482;2022-12-24T05:04:19;-8.30;99.90
46217;DHT22;47258;59.424;13.482;2022-12-24T05:06:46;-8.30;99.90
46217;DHT22;47258;59.424;13.482;2022-12-24T05:09:13;-8.40;99.90
46217;DHT22;47258;59.424;13.482;2022-12-24T05:11:40;-8.40;99.90
46217;DHT22;47258;59.424;13.482;2022-12-24T05:14:07;-8.50;99.90
46217;DHT22;47258;59.424;13.482;2022-12-24T05:16:35;-8.60;99.90
46217;DHT22;47258;59.424;13.482;2022-12-24T05:19:03;-8.60;99.90
46217;DHT22;47258;59.424;13.482;2022-12-24T05:21:30;-8.60;99.90
46217;DHT22;47258;59.424;13.482;2022-12-24T05:23:57;-8.60;99.90
46217;DHT22;47258;59.424;13.482;2022-12-24T05:26:44;-8.60;99.90
46217;DHT22;47258;59.424;13.482;2022-12-24T05:29:12;-8.60;99.90
46217;DHT22;47258;59.424;13.482;2022-12-24T05:31:41;-8.60;99.90
46217;DHT22;47258;59.424;13.482;2022-12-24T05:34:10;-8.60;99.90
46217;DHT22;47258;59.424;13.482;2022-12-24T05:36:38;-8.60;99.90
46217;DHT22;47258;59.424;13.482;2022-12-24T05:39:06;-8.60;99.90
46217;DHT22;47258;59.424;13.482;2022-12-24T05:41:33;-8.70;99.90
46217;DHT22;47258;59.424;13.482;2022-12-24T05:44:00;-8.70;99.90
46217;DHT22;47258;59.424;13.482;2022-12-24T05:46:27;-8.70;99.90
46217;DHT22;47258;59.424;13.482;2022-12-24T05:48:55;-8.70;99.90
46217;DHT22;47258;59.424;13.482;2022-12-24T05:51:22;-8.70;99.90
46217;DHT22;47258;59.424;13.482;2022-12-24T05:53:50;-8.70;99.90
46217;DHT22;47258;59.424;13.482;2022-12-24T05:56:19;-8.70;99.90
46217;DHT22;47258;59.424;13.482;2022-12-24T05:58:47;-8.70;99.90
46217;DHT22;47258;59.424;13.482;2022-12-24T06:01:14;-8.70;99.90
46217;DHT22;47258;59.424;13.482;2022-12-24T06:03:41;-8.70;99.90
46217;DHT22;47258;59.424;13.482;2022-12-24T06:06:11;-8.70;99.90
46217;DHT22;47258;59.424;13.482;2022-12-24T06:08:39;-8.70;99.90
46217;DHT22;47258;59.424;13.482;2022-12-24T06:11:08;-8.80;99.90
46217;DHT22;47258;59.424;13.482;2022-12-24T06:13:36;-8.80;99.90
46217;DHT22;47258;59.424;13.482;2022-12-24T06:16:05;-8.80;99.90
46217;DHT22;47258;59.424;13.482;2022-12-24T06:18:33;-8.80;99.90
46217;DHT22;47258;59.424;13.482;2022-12-24T06:21:01;-8.90;99.90
46217;DHT22;47258;59.424;13.482;2022-12-24T06:23:32;-8.90;99.90
46217;DHT22;47258;59.424;13.482;2022-12-24T06:26:00;-8.90;99.90
46217;DHT22;47258;59.424;13.482;2022-12-24T06:28:27;-8.90;99.90
46217;DHT22;47258;59.424;13.482;2022-12-24T06:30:55;-8.90;99.90
46217;DHT22;47258;59.424;13.482;2022-12-24T06:33:22;-8.90;99.90
46217;DHT22;47258;59.424;13.482;2022-12-24T06:35:49;-8.90;99.90
46217;DHT22;47258;59.424;13.482;2022-12-24T06:38:16;-8.90;99.90
46217;DHT22;47258;59.424;13.482;2022-12-24T06:40:45;-8.90;99.90
46217;DHT22;47258;59.424;13.482;2022-12-24T06:43:14;-8.90;99.90
46217;DHT22;47258;59.424;13.482;2022-12-24T06:45:44;-8.90;99.90
46217;DHT22;47258;59.424;13.482;2022-12-24T06:48:11;-9.00;99.90
46217;DHT22;47258;59.424;13.482;2022-12-24T06:50:39;-9.00;99.90
46217;DHT22;47258;59.424;13.482;2022-12-24T06:53:06;-9.00;99.90
46217;DHT22;47258;59.424;13.482;2022-12-24T06:55:34;-9.00;99.90
46217;DHT22;47258;59.424;13.482;2022-12-24T06:58:02;-9.00;99.90
46217;DHT22;47258;59.424;13.482;2022-12-24T07:00:29;-9.00;99.90
46217;DHT22;47258;59.424;13.482;2022-12-24T07:02:56;-9.10;99.90
46217;DHT22;47258;59.424;13.482;2022-12-24T07:05:24;-9.10;99.90
46217;DHT22;47258;59.424;13.482;2022-12-24T07:07:51;-9.10;99.90
46217;DHT22;47258;59.424;13.482;2022-12-24T07:10:19;-9.10;99.90
46217;DHT22;47258;59.424;13.482;2022-12-24T07:12:46;-9.10;99.90
46217;DHT22;47258;59.424;13.482;2022-12-24T07:15:16;-9.20;99.90
46217;DHT22;47258;59.424;13.482;2022-12-24T07:17:43;-9.20;99.90
46217;DHT22;47258;59.424;13.482;2022-12-24T07:20:12;-9.30;99.90
46217;DHT22;47258;59.424;13.482;2022-12-24T07:22:40;-9.30;99.90
46217;DHT22;47258;59.424;13.482;2022-12-24T07:25:08;-9.30;99.90
46217;DHT22;47258;59.424;13.482;2022-12-24T07:27:35;-9.20;99.90
46217;DHT22;47258;59.424;13.482;2022-12-24T07:30:02;-9.20;99.90
46217;DHT22;47258;59.424;13.482;2022-12-24T07:32:31;-9.20;99.90
46217;DHT22;47258;59.424;13.482;2022-12-24T07:34:58;-9.30;99.90
46217;DHT22;47258;59.424;13.482;2022-12-24T07:37:25;-9.30;99.90
46217;DHT22;47258;59.424;13.482;2022-12-24T07:39:52;-9.30;99.90
46217;DHT22;47258;59.424;13.482;2022-12-24T07:42:19;-9.30;99.90
46217;DHT22;47258;59.424;13.482;2022-12-24T07:44:46;-9.40;99.90
46217;DHT22;47258;59.424;13.482;2022-12-24T07:47:14;-9.40;99.90
46217;DHT22;47258;59.424;13.482;2022-12-24T07:49:42;-9.30;99.90
46217;DHT22;47258;59.424;13.482;2022-12-24T07:52:09;-9.30;99.90
46217;DHT22;47258;59.424;13.482;2022-12-24T07:54:36;-9.30;99.90
46217;DHT22;47258;59.424;13.482;2022-12-24T07:57:03;-9.30;99.90
46217;DHT22;47258;59.424;13.482;2022-12-24T07:59:30;-9.30;99.90
46217;DHT22;47258;59.424;13.482;2022-12-24T08:01:58;-9.40;99.90
46217;DHT22;47258;59.424;13.482;2022-12-24T08:04:25;-9.40;99.90
46217;DHT22;47258;59.424;13.482;2022-12-24T08:06:53;-9.50;99.90
46217;DHT22;47258;59.424;13.482;2022-12-24T08:09:20;-9.50;99.90
46217;DHT22;47258;59.424;13.482;2022-12-24T08:11:48;-9.50;99.90
46217;DHT22;47258;59.424;13.482;2022-12-24T08:14:15;-9.50;99.90
46217;DHT22;47258;59.424;13.482;2022-12-24T08:16:42;-9.50;99.90
46217;DHT22;47258;59.424;13.482;2022-12-24T08:19:09;-9.50;99.90
46217;DHT22;47258;59.424;13.482;2022-12-24T08:21:36;-9.50;99.90
46217;DHT22;47258;59.424;13.482;2022-12-24T08:24:05;-9.60;99.90
46217;DHT22;47258;59.424;13.482;2022-12-24T08:26:32;-9.50;99.90
46217;DHT22;47258;59.424;13.482;2022-12-24T08:28:59;-9.50;99.90
46217;DHT22;47258;59.424;13.482;2022-12-24T08:31:26;-9.50;99.90
46217;DHT22;47258;59.424;13.482;2022-12-24T08:33:54;-9.50;99.90
46217;DHT22;47258;59.424;13.482;2022-12-24T08:36:21;-9.50;99.90
46217;DHT22;47258;59.424;13.482;2022-12-24T08:38:48;-9.40;99.90
46217;DHT22;47258;59.424;13.482;2022-12-24T08:41:16;-9.40;99.90
46217;DHT22;47258;59.424;13.482;2022-12-24T08:43:43;-9.30;99.90
46217;DHT22;47258;59.424;13.482;2022-12-24T08:46:10;-9.30;99.90
46217;DHT22;47258;59.424;13.482;2022-12-24T08:48:37;-9.20;99.90
46217;DHT22;47258;59.424;13.482;2022-12-24T08:51:09;-9.10;99.90
46217;DHT22;47258;59.424;13.482;2022-12-24T08:53:36;-9.10;99.90
46217;DHT22;47258;59.424;13.482;2022-12-24T08:56:06;-9.10;99.90
46217;DHT22;47258;59.424;13.482;2022-12-24T08:58:35;-9.10;99.90
46217;DHT22;47258;59.424;13.482;2022-12-24T09:01:09;-9.10;99.90
46217;DHT22;47258;59.424;13.482;2022-12-24T09:03:36;-9.00;99.90
46217;DHT22;47258;59.424;13.482;2022-12-24T09:06:04;-9.00;99.90
46217;DHT22;47258;59.424;13.482;2022-12-24T09:08:32;-9.00;99.90
46217;DHT22;47258;59.424;13.482;2022-12-24T09:11:03;-9.00;99.90
46217;DHT22;47258;59.424;13.482;2022-12-24T09:13:30;-8.90;99.90
46217;DHT22;47258;59.424;13.482;2022-12-24T09:15:59;-8.90;99.90
46217;DHT22;47258;59.424;13.482;2022-12-24T09:18:26;-8.80;99.90
46217;DHT22;47258;59.424;13.482;2022-12-24T09:20:58;-8.80;99.90
46217;DHT22;47258;59.424;13.482;2022-12-24T09:23:25;-8.80;99.90
46217;DHT22;47258;59.424;13.482;2022-12-24T09:25:53;-8.70;99.90
46217;DHT22;47258;59.424;13.482;2022-12-24T09:28:20;-8.70;99.90
46217;DHT22;47258;59.424;13.482;2022-12-24T09:30:55;-8.60;99.90
46217;DHT22;47258;59.424;13.482;2022-12-24T09:33:24;-8.60;99.90
46217;DHT22;47258;59.424;13.482;2022-12-24T09:35:51;-8.50;99.90
46217;DHT22;47258;59.424;13.482;2022-12-24T09:38:18;-8.50;99.90
46217;DHT22;47258;59.424;13.482;2022-12-24T09:40:45;-8.50;99.90
46217;DHT22;47258;59.424;13.482;2022-12-24T09:43:16;-8.50;99.90
46217;DHT22;47258;59.424;13.482;2022-12-24T09:45:48;-8.40;99.90
46217;DHT22;47258;59.424;13.482;2022-12-24T09:48:18;-8.40;99.90
46217;DHT22;47258;59.424;13.482;2022-12-24T09:50:53;-8.30;99.90
46217;DHT22;47258;59.424;13.482;2022-12-24T09:53:25;-8.30;99.90
46217;DHT22;47258;59.424;13.482;2022-12-24T09:55:56;-8.20;99.90
46217;DHT22;47258;59.424;13.482;2022-12-24T09:58:26;-8.10;99.90
46217;DHT22;47258;59.424;13.482;2022-12-24T10:00:56;-8.00;99.90
46217;DHT22;47258;59.424;13.482;2022-12-24T10:03:23;-7.90;99.90
46217;DHT22;47258;59.424;13.482;2022-12-24T10:05:59;-7.90;99.90
46217;DHT22;47258;59.424;13.482;2022-12-24T10:08:32;-7.80;99.90
46217;DHT22;47258;59.424;13.482;2022-12-24T10:11:07;-7.70;99.90
46217;DHT22;47258;59.424;13.482;2022-12-24T10:13:49;-7.70;99.90
46217;DHT22;47258;59.424;13.482;2022-12-24T10:16:23;-7.60;99.90
46217;DHT22;47258;59.424;13.482;2022-12-24T10:18:58;-7.60;99.90
46217;DHT22;47258;59.424;13.482;2022-12-24T10:21:36;-7.60;99.90
46217;DHT22;47258;59.424;13.482;2022-12-24T10:24:13;-7.60;99.90
46217;DHT22;47258;59.424;13.482;2022-12-24T10:26:52;-7.60;99.90
46217;DHT22;47258;59.424;13.482;2022-12-24T10:29:24;-7.60;99.90
46217;DHT22;47258;59.424;13.482;2022-12-24T10:31:57;-7.60;99.90
46217;DHT22;47258;59.424;13.482;2022-12-24T10:34:29;-7.60;99.90
46217;DHT22;47258;59.424;13.482;2022-12-24T10:37:00;-7.60;99.90
46217;DHT22;47258;59.424;13.482;2022-12-24T10:39:29;-7.60;99.90
46217;DHT22;47258;59.424;13.482;2022-12-24T10:41:58;-7.60;99.90
46217;DHT22;47258;59.424;13.482;2022-12-24T10:44:27;-7.60;99.90
46217;DHT22;47258;59.424;13.482;2022-12-24T10:46:56;-7.70;99.90
46217;DHT22;47258;59.424;13.482;2022-12-24T10:49:30;-7.70;99.90
46217;DHT22;47258;59.424;13.482;2022-12-24T10:52:03;-7.60;99.90
46217;DHT22;47258;59.424;13.482;2022-12-24T10:54:31;-7.60;99.90
46217;DHT22;47258;59.424;13.482;2022-12-24T10:57:04;-7.60;99.90
46217;DHT22;47258;59.424;13.482;2022-12-24T10:59:40;-7.60;99.90
46217;DHT22;47258;59.424;13.482;2022-12-24T11:02:27;-7.50;99.90
46217;DHT22;47258;59.424;13.482;2022-12-24T11:04:54;-7.50;99.90
46217;DHT22;47258;59.424;13.482;2022-12-24T11:07:23;-7.40;99.90
46217;DHT22;47258;59.424;13.482;2022-12-24T11:09:55;-7.30;99.90
46217;DHT22;47258;59.424;13.482;2022-12-24T11:12:24;-7.30;99.90
46217;DHT22;47258;59.424;13.482;2022-12-24T11:14:59;-7.20;99.90
46217;DHT22;47258;59.424;13.482;2022-12-24T11:17:27;-7.20;99.90
46217;DHT22;47258;59.424;13.482;2022-12-24T11:19:54;-7.20;99.90
46217;DHT22;47258;59.424;13.482;2022-12-24T11:22:25;-7.20;99.90
46217;DHT22;47258;59.424;13.482;2022-12-24T11:24:58;-7.10;99.90
46217;DHT22;47258;59.424;13.482;2022-12-24T11:27:32;-7.00;99.90
46217;DHT22;47258;59.424;13.482;2022-12-24T11:33:18;-6.90;99.90
46217;DHT22;47258;59.424;13.482;2022-12-24T11:35:49;-6.90;99.90
46217;DHT22;47258;59.424;13.482;2022-12-24T11:38:20;-6.80;99.90
46217;DHT22;47258;59.424;13.482;2022-12-24T11:40:49;-6.80;99.90
46217;DHT22;47258;59.424;13.482;2022-12-24T11:43:19;-6.80;99.90
46217;DHT22;47258;59.424;13.482;2022-12-24T11:45:49;-6.90;99.90
46217;DHT22;47258;59.424;13.482;2022-12-24T11:48:26;-6.90;99.90
46217;DHT22;47258;59.424;13.482;2022-12-24T11:50:58;-6.90;99.90
46217;DHT22;47258;59.424;13.482;2022-12-24T11:53:32;-6.90;99.90
46217;DHT22;47258;59.424;13.482;2022-12-24T11:56:04;-6.90;99.90
46217;DHT22;47258;59.424;13.482;2022-12-24T11:58:37;-7.00;99.90
46217;DHT22;47258;59.424;13.482;2022-12-24T12:01:13;-7.00;99.90
46217;DHT22;47258;59.424;13.482;2022-12-24T12:03:46;-7.00;99.90
46217;DHT22;47258;59.424;13.482;2022-12-24T12:06:23;-7.00;99.90
46217;DHT22;47258;59.424;13.482;2022-12-24T12:08:55;-7.00;99.90
46217;DHT22;47258;59.424;13.482;2022-12-24T12:11:24;-7.00;99.90
46217;DHT22;47258;59.424;13.482;2022-12-24T12:13:55;-7.00;99.90
46217;DHT22;47258;59.424;13.482;2022-12-24T12:16:28;-6.90;99.90
46217;DHT22;47258;59.424;13.482;2022-12-24T12:19:20;-6.80;99.90
46217;DHT22;47258;59.424;13.482;2022-12-24T12:21:48;-6.70;99.90
46217;DHT22;47258;59.424;13.482;2022-12-24T12:24:21;-6.70;99.90
46217;DHT22;47258;59.424;13.482;2022-12-24T12:26:56;-6.70;99.90
46217;DHT22;47258;59.424;13.482;2022-12-24T12:29:31;-6.60;99.90
46217;DHT22;47258;59.424;13.482;2022-12-24T12:32:03;-6.60;99.90
46217;DHT22;47258;59.424;13.482;2022-12-24T12:34:35;-6.60;99.90
46217;DHT22;47258;59.424;13.482;2022-12-24T12:37:09;-6.60;99.90
46217;DHT22;47258;59.424;13.482;2022-12-24T12:39:40;-6.60;99.90
46217;DHT22;47258;59.424;13.482;2022-12-24T12:42:14;-6.50;99.90
46217;DHT22;47258;59.424;13.482;2022-12-24T12:44:55;-6.40;99.90
46217;DHT22;47258;59.424;13.482;2022-12-24T12:47:42;-6.30;99.90
46217;DHT22;47258;59.424;13.482;2022-12-24T12:50:17;-6.30;99.90
46217;DHT22;47258;59.424;13.482;2022-12-24T12:53:01;-6.20;99.90
46217;DHT22;47258;59.424;13.482;2022-12-24T12:55:39;-6.10;99.90
46217;DHT22;47258;59.424;13.482;2022-12-24T12:58:15;-6.10;99.90
46217;DHT22;47258;59.424;13.482;2022-12-24T13:00:45;-6.00;99.90
46217;DHT22;47258;59.424;13.482;2022-12-24T13:06:33;-6.00;99.90
46217;DHT22;47258;59.424;13.482;2022-12-24T13:09:27;-5.90;99.90
46217;DHT22;47258;59.424;13.482;2022-12-24T13:12:34;-5.90;99.90
46217;DHT22;47258;59.424;13.482;2022-12-24T13:15:30;-5.90;99.90
46217;DHT22;47258;59.424;13.482;2022-12-24T13:18:13;-5.90;99.90
46217;DHT22;47258;59.424;13.482;2022-12-24T13:20:47;-5.80;99.90
46217;DHT22;47258;59.424;13.482;2022-12-24T13:23:17;-5.80;99.90
46217;DHT22;47258;59.424;13.482;2022-12-24T13:25:47;-5.80;99.90
46217;DHT22;47258;59.424;13.482;2022-12-24T13:28:33;-5.70;99.90
46217;DHT22;47258;59.424;13.482;2022-12-24T13:31:22;-5.70;99.90
46217;DHT22;47258;59.424;13.482;2022-12-24T13:33:51;-5.70;99.90
46217;DHT22;47258;59.424;13.482;2022-12-24T13:36:18;-5.60;99.90
46217;DHT22;47258;59.424;13.482;2022-12-24T13:38:46;-5.60;99.90
46217;DHT22;47258;59.424;13.482;2022-12-24T13:41:36;-5.50;99.90
46217;DHT22;47258;59.424;13.482;2022-12-24T13:44:16;-5.50;99.90
46217;DHT22;47258;59.424;13.482;2022-12-24T13:47:15;-5.40;99.90
46217;DHT22;47258;59.424;13.482;2022-12-24T13:49:48;-5.40;99.90
46217;DHT22;47258;59.424;13.482;2022-12-24T13:52:30;-5.30;99.90
46217;DHT22;47258;59.424;13.482;2022-12-24T13:55:12;-5.30;99.90
46217;DHT22;47258;59.424;13.482;2022-12-24T13:57:43;-5.30;99.90
46217;DHT22;47258;59.424;13.482;2022-12-24T14:00:27;-5.30;99.90
46217;DHT22;47258;59.424;13.482;2022-12-24T14:02:59;-5.30;99.90
46217;DHT22;47258;59.424;13.482;2022-12-24T14:05:30;-5.30;99.90
46217;DHT22;47258;59.424;13.482;2022-12-24T14:08:00;-5.30;99.90
46217;DHT22;47258;59.424;13.482;2022-12-24T14:10:30;-5.20;99.90
46217;DHT22;47258;59.424;13.482;2022-12-24T14:12:57;-5.20;99.90
46217;DHT22;47258;59.424;13.482;2022-12-24T14:18:26;-5.30;99.90
46217;DHT22;47258;59.424;13.482;2022-12-24T14:20:56;-5.30;99.90
46217;DHT22;47258;59.424;13.482;2022-12-24T14:23:32;-5.30;99.90
46217;DHT22;47258;59.424;13.482;2022-12-24T14:26:02;-5.30;99.90
46217;DHT22;47258;59.424;13.482;2022-12-24T14:28:33;-5.30;99.90
46217;DHT22;47258;59.424;13.482;2022-12-24T14:31:03;-5.30;99.90
46217;DHT22;47258;59.424;13.482;2022-12-24T14:33:33;-5.40;99.90
46217;DHT22;47258;59.424;13.482;2022-12-24T14:36:01;-5.30;99.90
46217;DHT22;47258;59.424;13.482;2022-12-24T14:38:29;-5.30;99.90
46217;DHT22;47258;59.424;13.482;2022-12-24T14:41:03;-5.30;99.90
46217;DHT22;47258;59.424;13.482;2022-12-24T14:43:45;-5.20;99.90
46217;DHT22;47258;59.424;13.482;2022-12-24T14:46:18;-5.20;99.90
46217;DHT22;47258;59.424;13.482;2022-12-24T14:48:52;-5.20;99.90
46217;DHT22;47258;59.424;13.482;2022-12-24T14:51:26;-5.20;99.90
46217;DHT22;47258;59.424;13.482;2022-12-24T14:54:09;-5.20;99.90
46217;DHT22;47258;59.424;13.482;2022-12-24T14:56:39;-5.30;99.90
46217;DHT22;47258;59.424;13.482;2022-12-24T14:59:14;-5.30;99.90
46217;DHT22;47258;59.424;13.482;2022-12-24T15:01:41;-5.30;99.90
46217;DHT22;47258;59.424;13.482;2022-12-24T15:04:16;-5.40;99.90
46217;DHT22;47258;59.424;13.482;2022-12-24T15:06:46;-5.40;99.90
46217;DHT22;47258;59.424;13.482;2022-12-24T15:09:18;-5.50;99.90
46217;DHT22;47258;59.424;13.482;2022-12-24T15:11:48;-5.40;99.90
46217;DHT22;47258;59.424;13.482;2022-12-24T15:14:16;-5.40;99.90
46217;DHT22;47258;59.424;13.482;2022-12-24T15:16:51;-5.50;99.90
46217;DHT22;47258;59.424;13.482;2022-12-24T15:19:25;-5.50;99.90
46217;DHT22;47258;59.424;13.482;2022-12-24T15:21:53;-5.50;99.90
46217;DHT22;47258;59.424;13.482;2022-12-24T15:24:25;-5.40;99.90
46217;DHT22;47258;59.424;13.482;2022-12-24T15:26:53;-5.50;99.90
46217;DHT22;47258;59.424;13.482;2022-12-24T15:29:22;-5.50;99.90
46217;DHT22;47258;59.424;13.482;2022-12-24T15:31:53;-5.50;99.90
46217;DHT22;47258;59.424;13.482;2022-12-24T15:34:30;-5.50;99.90
46217;DHT22;47258;59.424;13.482;2022-12-24T15:37:03;-5.50;99.90
46217;DHT22;47258;59.424;13.482;2022-12-24T15:39:31;-5.50;99.90
46217;DHT22;47258;59.424;13.482;2022-12-24T15:41:58;-5.50;99.90
46217;DHT22;47258;59.424;13.482;2022-12-24T15:44:48;-5.50;99.90
46217;DHT22;47258;59.424;13.482;2022-12-24T15:47:25;-5.50;99.90
46217;DHT22;47258;59.424;13.482;2022-12-24T15:49:53;-5.50;99.90